Time;durP1;ratioP1;P1;durP2;ratioP2;P2;SDS_P1;SDS_P2;PMS_P1;PMS_P2;Temp;Humidity;BMP_temperature;BMP_pressure;BME280_temperature;BME280_humidity;BME280_pressure;Samples;Min_cycle;Max_cycle;Signal;HPM_P1;HPM_P2
2021/10/02 00:34:16;;;;;;;3.43;2.77;;;10.80;99.90;;;;;;4982793;28;20762;-81
2021/10/02 00:44:58;;;;;;;3.00;2.70;;;10.70;99.90;;;;;;5065879;28;20254;-81
2021/10/02 00:47:28;;;;;;;3.00;2.63;;;10.70;99.90;;;;;;5082009;28;20300;-81
2021/10/02 00:49:57;;;;;;;3.40;3.10;;;10.70;99.90;;;;;;5066685;28;20297;-81
2021/10/02 00:52:26;;;;;;;3.90;2.70;;;10.70;99.90;;;;;;5069179;28;20205;-81
2021/10/02 00:54:53;;;;;;;3.67;3.00;;;10.60;99.90;;;;;;5086312;28;20691;-80
2021/10/02 00:57:20;;;;;;;3.10;2.70;;;10.60;99.90;;;;;;5070777;28;20581;-81
2021/10/02 00:59:48;;;;;;;3.20;2.43;;;10.60;99.90;;;;;;5068245;28;20200;-80
2021/10/02 01:02:21;;;;;;;3.57;3.27;;;10.50;99.90;;;;;;5070985;28;20335;-81
2021/10/02 01:05:19;;;;;;;2.77;2.57;;;10.50;99.90;;;;;;5070507;28;20207;-81
2021/10/02 01:07:53;;;;;;;2.70;2.50;;;10.50;99.90;;;;;;5072057;28;20680;-81
2021/10/02 01:10:27;;;;;;;3.17;2.97;;;10.50;99.90;;;;;;5101368;27;20199;-81
2021/10/02 01:13:02;;;;;;;3.57;3.00;;;10.50;99.90;;;;;;5108730;28;20729;-81
2021/10/02 01:15:36;;;;;;;3.20;2.90;;;10.50;99.90;;;;;;5106558;28;20300;-81
2021/10/02 01:18:12;;;;;;;3.13;2.50;;;10.50;99.90;;;;;;5109241;28;20658;-81
2021/10/02 01:20:50;;;;;;;3.90;2.70;;;10.50;99.90;;;;;;5105693;28;20191;-82
2021/10/02 01:23:47;;;;;;;3.10;2.70;;;10.40;99.90;;;;;;5108436;28;20209;-80
2021/10/02 01:26:51;;;;;;;3.03;2.40;;;10.40;99.90;;;;;;5093359;28;20208;-81
2021/10/02 01:29:20;;;;;;;2.33;2.13;;;10.40;99.90;;;;;;5098851;28;20585;-81
2021/10/02 01:31:58;;;;;;;2.60;2.40;;;10.40;99.90;;;;;;5107951;28;20225;-81
2021/10/02 01:34:32;;;;;;;2.60;2.40;;;10.40;99.90;;;;;;5110386;27;20609;-81
2021/10/02 01:37:10;;;;;;;3.50;2.53;;;10.40;99.90;;;;;;5110201;27;20227;-81
2021/10/02 01:47:55;;;;;;;3.27;2.40;;;10.30;99.90;;;;;;5035999;28;20207;-81
2021/10/02 01:50:24;;;;;;;2.43;2.23;;;10.30;99.90;;;;;;5030285;28;20307;-80
2021/10/02 01:52:53;;;;;;;2.63;2.43;;;10.30;99.90;;;;;;5032078;28;20220;-80
2021/10/02 01:55:23;;;;;;;6.20;2.87;;;10.30;99.90;;;;;;5028194;28;20201;-80
2021/10/02 01:57:54;;;;;;;4.37;2.60;;;10.20;99.90;;;;;;5030070;28;20209;-80
2021/10/02 02:00:22;;;;;;;2.90;2.60;;;10.30;99.90;;;;;;5027023;28;20260;-81
2021/10/02 02:02:54;;;;;;;4.50;2.97;;;10.20;99.90;;;;;;5027686;28;20331;-80
2021/10/02 02:05:24;;;;;;;3.40;3.10;;;10.20;99.90;;;;;;5019572;28;20206;-80
2021/10/02 02:07:54;;;;;;;3.07;2.83;;;10.20;99.90;;;;;;5029673;28;20697;-80
2021/10/02 02:10:25;;;;;;;2.57;2.37;;;10.20;99.90;;;;;;5036178;28;20225;-80
2021/10/02 02:12:55;;;;;;;8.10;5.27;;;10.20;99.90;;;;;;5031463;28;20222;-80
2021/10/02 02:15:26;;;;;;;4.43;3.80;;;10.10;99.90;;;;;;5029387;28;20212;-80
2021/10/02 02:17:58;;;;;;;4.57;4.17;;;10.10;99.90;;;;;;5027404;28;20278;-80
2021/10/02 02:20:29;;;;;;;4.27;3.30;;;10.10;99.90;;;;;;5030843;28;20205;-80
2021/10/02 02:22:56;;;;;;;4.13;3.43;;;10.10;99.90;;;;;;5028442;28;20208;-81
2021/10/02 02:25:23;;;;;;;4.40;3.60;;;10.00;99.90;;;;;;5067436;28;20206;-81
2021/10/02 02:27:51;;;;;;;3.73;3.30;;;10.00;99.90;;;;;;5106808;28;20197;-81
2021/10/02 02:30:18;;;;;;;3.20;2.90;;;10.00;99.90;;;;;;5096102;28;20273;-81
2021/10/02 02:32:47;;;;;;;3.97;3.50;;;10.00;99.90;;;;;;5115532;27;20192;-80
2021/10/02 02:35:14;;;;;;;3.30;3.00;;;10.10;99.90;;;;;;5110729;28;20193;-80
2021/10/02 02:37:41;;;;;;;3.20;2.90;;;10.00;99.90;;;;;;5111729;28;20229;-80
2021/10/02 02:40:09;;;;;;;2.73;2.53;;;10.00;99.90;;;;;;5106374;28;20203;-79
2021/10/02 02:42:36;;;;;;;2.93;2.63;;;10.00;99.90;;;;;;5103502;27;20209;-80
2021/10/02 02:45:04;;;;;;;3.20;3.00;;;10.00;99.90;;;;;;5111386;28;20193;-81
2021/10/02 02:47:33;;;;;;;3.00;2.60;;;10.00;99.90;;;;;;5113033;28;20674;-81
2021/10/02 02:50:07;;;;;;;3.67;2.90;;;10.00;99.90;;;;;;5114065;27;20221;-81
2021/10/02 02:52:44;;;;;;;3.73;3.30;;;10.10;99.90;;;;;;5104063;28;20734;-81
2021/10/02 02:55:14;;;;;;;2.97;2.77;;;10.00;99.90;;;;;;5109556;28;20204;-80
2021/10/02 02:57:43;;;;;;;2.80;2.60;;;9.90;99.90;;;;;;5107477;28;20215;-81
2021/10/02 03:00:14;;;;;;;3.60;3.30;;;9.90;99.90;;;;;;5109220;27;21217;-79
2021/10/02 03:02:47;;;;;;;3.00;2.80;;;9.90;99.90;;;;;;5104716;27;20575;-80
2021/10/02 03:05:17;;;;;;;3.10;2.80;;;9.90;99.90;;;;;;5110259;28;20212;-80
2021/10/02 03:07:54;;;;;;;4.00;3.57;;;9.90;99.90;;;;;;5111758;27;20229;-81
2021/10/02 03:10:21;;;;;;;4.93;3.67;;;9.90;99.90;;;;;;5110852;28;20206;-81
2021/10/02 03:12:50;;;;;;;4.00;3.40;;;9.80;99.90;;;;;;5110393;28;20292;-80
2021/10/02 03:15:18;;;;;;;5.33;3.80;;;9.80;99.90;;;;;;5098701;28;20212;-80
2021/10/02 03:17:47;;;;;;;3.50;3.20;;;9.80;99.90;;;;;;5112027;28;20213;-80
2021/10/02 03:20:20;;;;;;;3.90;3.20;;;9.70;99.90;;;;;;5110058;28;20671;-81
2021/10/02 03:22:52;;;;;;;4.03;3.50;;;9.70;99.90;;;;;;5111275;27;20216;-80
2021/10/02 03:25:22;;;;;;;3.27;2.97;;;9.70;99.90;;;;;;5109761;28;20501;-80
2021/10/02 03:27:50;;;;;;;3.80;3.20;;;9.70;99.90;;;;;;5110153;28;20712;-80
2021/10/02 03:30:17;;;;;;;3.10;2.80;;;9.70;99.90;;;;;;5108145;28;20302;-80
2021/10/02 03:32:45;;;;;;;3.57;3.20;;;9.70;99.90;;;;;;5111773;28;20196;-80
2021/10/02 03:35:12;;;;;;;2.87;2.60;;;9.70;99.90;;;;;;5109945;28;20268;-80
2021/10/02 03:37:41;;;;;;;3.07;2.80;;;9.70;99.90;;;;;;5108154;28;20220;-80
2021/10/02 03:40:09;;;;;;;3.30;3.00;;;9.70;99.90;;;;;;5105796;28;20239;-80
2021/10/02 03:42:43;;;;;;;5.37;4.23;;;9.70;99.90;;;;;;5099831;28;20209;-80
2021/10/02 03:45:11;;;;;;;4.00;3.60;;;9.70;99.90;;;;;;5108827;28;20212;-80
2021/10/02 03:47:38;;;;;;;4.80;4.30;;;9.70;99.90;;;;;;5110632;28;20234;-80
2021/10/02 03:50:06;;;;;;;4.03;3.50;;;9.60;99.90;;;;;;5111790;27;20364;-81
2021/10/02 03:52:33;;;;;;;3.77;3.37;;;9.60;99.90;;;;;;5102949;28;20216;-79
2021/10/02 03:55:01;;;;;;;5.07;3.93;;;9.60;99.90;;;;;;5106974;28;20641;-80
2021/10/02 03:57:28;;;;;;;3.33;3.03;;;9.60;99.90;;;;;;5110289;28;20234;-80
2021/10/02 03:59:55;;;;;;;3.80;3.07;;;9.60;99.90;;;;;;5106081;28;20203;-80
2021/10/02 04:02:23;;;;;;;3.00;2.60;;;9.60;99.90;;;;;;5109673;28;20280;-80
2021/10/02 04:04:50;;;;;;;2.90;2.70;;;9.60;99.90;;;;;;5113502;27;20687;-79
2021/10/02 04:07:17;;;;;;;3.33;3.03;;;9.60;99.90;;;;;;5110238;28;20299;-81
2021/10/02 04:09:44;;;;;;;2.60;2.40;;;9.60;99.90;;;;;;5109169;27;20220;-80
2021/10/02 04:12:13;;;;;;;3.90;3.50;;;9.60;99.90;;;;;;5109266;28;20271;-80
2021/10/02 04:14:40;;;;;;;4.00;3.23;;;9.60;99.90;;;;;;5108027;28;20210;-80
2021/10/02 04:17:07;;;;;;;2.83;2.63;;;9.60;99.90;;;;;;5109394;28;20224;-80
2021/10/02 04:19:34;;;;;;;4.37;3.97;;;9.60;99.90;;;;;;5110665;27;20309;-80
2021/10/02 04:22:01;;;;;;;3.40;3.10;;;9.60;99.90;;;;;;5109064;27;20203;-80
2021/10/02 04:24:28;;;;;;;3.17;2.87;;;9.60;99.90;;;;;;5113579;27;20196;-81
2021/10/02 04:26:58;;;;;;;3.13;2.80;;;9.60;99.90;;;;;;5108831;28;20189;-81
2021/10/02 04:29:27;;;;;;;3.40;3.10;;;9.50;99.90;;;;;;5107418;28;20227;-81
2021/10/02 04:31:54;;;;;;;3.13;2.80;;;9.50;99.90;;;;;;5095935;28;20319;-81
2021/10/02 04:34:21;;;;;;;3.00;2.80;;;9.50;99.90;;;;;;5107054;27;20205;-81
2021/10/02 04:36:48;;;;;;;3.60;3.30;;;9.50;99.90;;;;;;5110680;27;20220;-81
2021/10/02 04:39:15;;;;;;;3.00;2.77;;;9.50;99.90;;;;;;5112168;27;20208;-81
2021/10/02 04:41:42;;;;;;;3.73;3.43;;;9.50;99.90;;;;;;5109183;27;20202;-81
2021/10/02 04:44:09;;;;;;;4.10;3.70;;;9.50;99.90;;;;;;5109080;27;20197;-81
2021/10/02 04:46:38;;;;;;;4.03;3.27;;;9.50;99.90;;;;;;5111466;27;20288;-81
2021/10/02 04:49:07;;;;;;;3.40;3.10;;;9.40;99.90;;;;;;5114683;27;20191;-81
2021/10/02 04:51:34;;;;;;;3.30;2.93;;;9.50;99.90;;;;;;5109036;28;20238;-81
2021/10/02 04:54:01;;;;;;;3.30;3.00;;;9.50;99.90;;;;;;5114841;27;20187;-81
2021/10/02 04:56:28;;;;;;;2.93;2.73;;;9.50;99.90;;;;;;5112277;27;20238;-81
2021/10/02 04:58:55;;;;;;;4.10;3.70;;;9.50;99.90;;;;;;5112866;27;20207;-81
2021/10/02 05:01:22;;;;;;;3.17;2.97;;;9.50;99.90;;;;;;5112285;27;20208;-82
2021/10/02 05:03:51;;;;;;;3.60;3.30;;;9.50;99.90;;;;;;5100028;28;20225;-81
2021/10/02 05:06:18;;;;;;;4.23;3.20;;;9.50;99.90;;;;;;5109679;27;20226;-80
2021/10/02 05:08:45;;;;;;;3.30;3.00;;;9.50;99.90;;;;;;5109776;27;20217;-81
2021/10/02 05:11:13;;;;;;;3.60;3.10;;;9.50;99.90;;;;;;5106904;28;20202;-80
2021/10/02 05:13:40;;;;;;;4.00;3.20;;;9.50;99.90;;;;;;5108930;27;20210;-80
2021/10/02 05:16:07;;;;;;;3.40;3.10;;;9.50;99.90;;;;;;5110113;27;20201;-81
2021/10/02 05:18:34;;;;;;;3.10;2.83;;;9.60;99.90;;;;;;5110786;27;20286;-81
2021/10/02 05:21:02;;;;;;;3.10;2.90;;;9.60;99.90;;;;;;5107773;28;20200;-81
2021/10/02 05:23:29;;;;;;;3.70;3.30;;;9.60;99.90;;;;;;5109083;28;20200;-80
2021/10/02 05:25:56;;;;;;;3.30;3.00;;;9.70;99.90;;;;;;5105777;28;20203;-79
2021/10/02 05:28:25;;;;;;;4.70;3.97;;;9.80;99.90;;;;;;5107780;28;20273;-80
2021/10/02 05:30:52;;;;;;;6.07;4.20;;;9.80;99.90;;;;;;5107023;28;20222;-79
2021/10/02 05:33:19;;;;;;;4.50;3.93;;;9.90;99.90;;;;;;5109500;28;20203;-79
2021/10/02 05:35:48;;;;;;;5.30;4.47;;;9.90;99.90;;;;;;5109440;27;20288;-79
2021/10/02 05:38:20;;;;;;;5.50;4.43;;;10.00;99.90;;;;;;5110260;28;20220;-79
2021/10/02 05:40:48;;;;;;;5.17;4.20;;;10.00;99.90;;;;;;5106616;27;20203;-80
2021/10/02 05:43:15;;;;;;;4.13;3.70;;;10.10;99.90;;;;;;5110502;27;20192;-80
2021/10/02 05:45:42;;;;;;;7.00;4.00;;;10.20;99.90;;;;;;5108172;28;20286;-80
2021/10/02 05:48:09;;;;;;;5.60;4.50;;;10.30;99.90;;;;;;5109457;28;20665;-80
2021/10/02 05:50:38;;;;;;;5.20;4.70;;;10.40;99.90;;;;;;5108907;27;20642;-80
2021/10/02 05:53:06;;;;;;;4.80;4.30;;;10.50;99.90;;;;;;5093017;28;20216;-81
2021/10/02 05:55:34;;;;;;;5.37;4.63;;;10.60;99.90;;;;;;5106817;28;20188;-79
2021/10/02 05:58:01;;;;;;;4.90;4.40;;;10.70;99.90;;;;;;5108057;27;20219;-79
2021/10/02 06:00:28;;;;;;;4.43;3.73;;;10.80;99.90;;;;;;5106517;28;20202;-80
2021/10/02 06:02:56;;;;;;;5.60;4.50;;;10.90;99.90;;;;;;5106879;28;20235;-80
2021/10/02 06:05:26;;;;;;;4.83;4.33;;;11.00;99.90;;;;;;5107082;28;20249;-80
2021/10/02 06:07:54;;;;;;;4.20;3.80;;;11.20;99.90;;;;;;5107245;28;20667;-79
2021/10/02 06:10:21;;;;;;;4.40;4.00;;;11.30;99.90;;;;;;5107329;28;20231;-80
2021/10/02 06:12:52;;;;;;;4.87;4.33;;;11.40;99.90;;;;;;5110468;27;20245;-81
2021/10/02 06:15:19;;;;;;;4.40;3.60;;;11.60;99.90;;;;;;5110297;27;20227;-80
2021/10/02 06:17:46;;;;;;;3.43;3.17;;;11.80;99.90;;;;;;5112426;27;20223;-80
2021/10/02 06:20:13;;;;;;;4.80;4.40;;;11.90;99.90;;;;;;5108684;28;20371;-80
2021/10/02 06:22:40;;;;;;;4.03;3.63;;;11.90;99.90;;;;;;5106148;28;20605;-80
2021/10/02 06:25:09;;;;;;;5.00;4.27;;;11.80;99.90;;;;;;5105938;28;20211;-79
2021/10/02 06:27:36;;;;;;;3.77;3.47;;;11.80;99.90;;;;;;5109645;28;20284;-80
2021/10/02 06:30:06;;;;;;;4.80;4.30;;;11.80;99.90;;;;;;5102356;28;20196;-80
2021/10/02 06:32:33;;;;;;;6.43;4.77;;;11.80;99.90;;;;;;5106318;28;20291;-80
2021/10/02 06:35:00;;;;;;;5.13;4.53;;;11.70;99.90;;;;;;5098177;28;20317;-80
2021/10/02 06:37:27;;;;;;;4.70;4.30;;;11.70;99.90;;;;;;5111438;28;20214;-80
2021/10/02 06:39:54;;;;;;;6.27;5.10;;;11.70;99.90;;;;;;5103913;28;20251;-80
2021/10/02 06:42:21;;;;;;;6.67;5.57;;;11.60;99.90;;;;;;5112165;28;20203;-80
2021/10/02 06:44:48;;;;;;;9.87;6.60;;;11.50;99.90;;;;;;5101510;28;20207;-80
2021/10/02 06:47:16;;;;;;;6.83;6.03;;;11.30;99.90;;;;;;5096077;28;20197;-81
2021/10/02 06:49:43;;;;;;;9.03;6.43;;;11.30;99.90;;;;;;5099534;28;20226;-81
2021/10/02 06:52:10;;;;;;;6.80;5.87;;;11.20;99.90;;;;;;5106887;28;20743;-80
2021/10/02 06:54:37;;;;;;;7.23;5.97;;;11.20;99.90;;;;;;5106759;28;20217;-80
2021/10/02 06:57:07;;;;;;;6.93;5.23;;;11.20;99.90;;;;;;5109286;28;20256;-82
2021/10/02 06:59:34;;;;;;;6.73;5.40;;;11.10;99.90;;;;;;5105239;28;20269;-81
2021/10/02 07:02:01;;;;;;;6.90;5.37;;;11.20;99.90;;;;;;5105771;28;20276;-81
2021/10/02 07:04:30;;;;;;;5.63;5.03;;;11.20;99.90;;;;;;5098775;28;20190;-80
2021/10/02 07:06:57;;;;;;;7.07;5.93;;;11.20;99.90;;;;;;5105251;28;20210;-80
2021/10/02 07:09:24;;;;;;;6.27;5.60;;;11.30;99.90;;;;;;5105159;28;20233;-80
2021/10/02 07:11:51;;;;;;;6.13;5.23;;;11.30;99.90;;;;;;5106204;28;20203;-81
2021/10/02 07:14:18;;;;;;;6.83;4.90;;;11.30;99.90;;;;;;5104100;28;20207;-80
2021/10/02 07:16:46;;;;;;;7.23;5.77;;;11.30;99.90;;;;;;5102648;28;20638;-81
2021/10/02 07:19:13;;;;;;;6.17;5.47;;;11.40;99.90;;;;;;5110719;28;20249;-81
2021/10/02 07:21:43;;;;;;;9.87;6.10;;;11.40;99.90;;;;;;5102147;28;20254;-81
2021/10/02 07:24:11;;;;;;;5.70;5.10;;;11.40;99.90;;;;;;5110881;27;20199;-81
2021/10/02 07:26:39;;;;;;;5.70;5.07;;;11.40;99.90;;;;;;5111800;27;20664;-80
2021/10/02 07:29:06;;;;;;;5.57;4.77;;;11.40;99.90;;;;;;5108620;27;20243;-80
2021/10/02 07:31:33;;;;;;;7.20;5.97;;;11.40;99.90;;;;;;5110347;28;20285;-81
2021/10/02 07:34:00;;;;;;;5.03;4.53;;;11.50;99.90;;;;;;5110276;28;20266;-81
2021/10/02 07:36:28;;;;;;;7.83;5.53;;;11.50;99.90;;;;;;5109885;28;20296;-81
2021/10/02 07:38:56;;;;;;;7.27;6.10;;;11.60;99.90;;;;;;5109699;27;20288;-78
2021/10/02 07:41:26;;;;;;;7.57;6.20;;;11.60;99.90;;;;;;5098274;28;20209;-78
2021/10/02 07:43:57;;;;;;;8.47;6.17;;;11.60;99.90;;;;;;5108468;28;20207;-79
2021/10/02 07:46:24;;;;;;;6.83;5.90;;;11.90;99.90;;;;;;5103187;28;20571;-78
2021/10/02 07:48:53;;;;;;;7.07;5.77;;;11.70;99.90;;;;;;5107012;27;20196;-75
2021/10/02 07:51:21;;;;;;;11.60;6.83;;;11.70;99.90;;;;;;5108511;27;20272;-77
2021/10/02 07:53:49;;;;;;;10.27;8.17;;;11.70;99.90;;;;;;5110535;27;20802;-74
2021/10/02 07:56:19;;;;;;;10.40;7.27;;;11.80;99.90;;;;;;5097612;27;20205;-74
2021/10/02 07:58:47;;;;;;;13.07;8.77;;;11.60;99.90;;;;;;5106105;27;20227;-74
2021/10/02 08:01:16;;;;;;;9.40;7.30;;;11.70;99.90;;;;;;5107832;27;20700;-79
2021/10/02 08:03:43;;;;;;;14.20;8.90;;;11.80;99.90;;;;;;5107375;28;20290;-79
2021/10/02 08:06:11;;;;;;;14.53;10.27;;;11.80;99.90;;;;;;5113881;27;20217;-78
2021/10/02 08:08:38;;;;;;;14.27;8.70;;;11.80;99.90;;;;;;5094615;28;20232;-77
2021/10/02 08:11:07;;;;;;;10.83;7.47;;;11.80;99.90;;;;;;5106689;28;20205;-78
2021/10/02 08:13:36;;;;;;;11.40;8.30;;;11.90;99.90;;;;;;5104173;28;20189;-75
2021/10/02 08:16:04;;;;;;;12.33;8.67;;;12.00;99.90;;;;;;5098965;28;20223;-74
2021/10/02 08:18:38;;;;;;;11.50;8.30;;;12.00;99.90;;;;;;5106987;27;20219;-76
2021/10/02 08:21:06;;;;;;;9.93;7.47;;;12.00;99.90;;;;;;5110833;27;20226;-77
2021/10/02 08:23:36;;;;;;;11.17;7.60;;;12.00;99.90;;;;;;5104059;28;20682;-76
2021/10/02 08:26:05;;;;;;;11.67;8.17;;;12.10;99.90;;;;;;5101054;28;20200;-76
2021/10/02 08:28:33;;;;;;;14.83;8.97;;;12.10;99.90;;;;;;5093630;28;20190;-78
2021/10/02 08:31:04;;;;;;;12.97;8.87;;;12.20;99.90;;;;;;5100203;27;20650;-80
2021/10/02 08:33:31;;;;;;;14.23;8.90;;;12.10;99.90;;;;;;5107695;27;20271;-79
2021/10/02 08:35:58;;;;;;;15.83;9.93;;;12.20;99.90;;;;;;5104826;28;20538;-78
2021/10/02 08:38:25;;;;;;;13.03;8.47;;;12.20;99.90;;;;;;5105709;28;20698;-79
2021/10/02 08:40:55;;;;;;;12.33;8.27;;;12.20;99.90;;;;;;5104750;28;20558;-79
2021/10/02 08:43:23;;;;;;;16.43;10.20;;;12.20;99.90;;;;;;5105766;27;20202;-80
2021/10/02 08:45:52;;;;;;;13.43;8.83;;;12.20;99.90;;;;;;5106211;27;20246;-81
2021/10/02 08:48:21;;;;;;;11.33;7.57;;;12.30;99.90;;;;;;5107755;27;20196;-80
2021/10/02 08:50:49;;;;;;;14.67;8.23;;;12.30;99.90;;;;;;5109120;27;20217;-79
2021/10/02 08:53:19;;;;;;;12.07;7.97;;;12.30;99.90;;;;;;5109703;27;20305;-81
2021/10/02 08:55:46;;;;;;;10.00;7.20;;;12.40;99.90;;;;;;5103992;28;20512;-78
2021/10/02 08:58:14;;;;;;;10.47;7.73;;;12.40;99.90;;;;;;5104039;28;20504;-79
2021/10/02 09:00:41;;;;;;;10.87;7.03;;;12.50;99.90;;;;;;5102955;28;20203;-78
2021/10/02 09:03:08;;;;;;;12.47;8.43;;;12.50;99.90;;;;;;5107017;27;20241;-79
2021/10/02 09:05:37;;;;;;;10.97;8.07;;;12.60;99.90;;;;;;5107938;27;20207;-80
2021/10/02 09:08:05;;;;;;;8.27;6.50;;;12.60;99.90;;;;;;5105591;27;20204;-81
2021/10/02 09:10:37;;;;;;;12.67;8.27;;;12.70;99.90;;;;;;5105852;27;20290;-81
2021/10/02 09:13:05;;;;;;;10.70;7.93;;;12.70;99.90;;;;;;5107042;27;20592;-80
2021/10/02 09:15:32;;;;;;;15.30;9.00;;;12.70;99.90;;;;;;5101013;27;20204;-79
2021/10/02 09:18:02;;;;;;;12.03;8.47;;;12.80;99.90;;;;;;5105539;27;20207;-80
2021/10/02 09:20:29;;;;;;;13.10;8.63;;;12.90;99.90;;;;;;5107010;28;20184;-80
2021/10/02 09:23:00;;;;;;;12.27;8.67;;;12.90;99.90;;;;;;5108385;28;20203;-77
2021/10/02 09:25:38;;;;;;;9.47;7.77;;;12.90;99.90;;;;;;5111488;27;20676;-76
2021/10/02 09:28:09;;;;;;;10.87;7.60;;;12.90;99.90;;;;;;5107437;27;20576;-79
2021/10/02 09:30:42;;;;;;;10.07;7.60;;;13.00;99.90;;;;;;5110039;27;20659;-79
2021/10/02 09:33:25;;;;;;;9.27;7.23;;;13.10;99.90;;;;;;5108800;28;20659;-79
2021/10/02 09:35:55;;;;;;;12.13;8.37;;;13.10;99.90;;;;;;5108603;28;20207;-77
2021/10/02 09:38:24;;;;;;;13.23;8.70;;;13.20;99.90;;;;;;5110898;27;20303;-73
2021/10/02 09:40:53;;;;;;;9.60;7.13;;;13.20;99.90;;;;;;5101293;28;20683;-77
2021/10/02 09:43:21;;;;;;;13.00;9.30;;;13.20;99.90;;;;;;5101821;27;20660;-75
2021/10/02 09:45:49;;;;;;;13.27;8.97;;;13.30;99.90;;;;;;5101362;28;20196;-75
2021/10/02 09:48:28;;;;;;;13.10;9.17;;;13.30;99.90;;;;;;5121371;27;20198;-75
2021/10/02 09:50:55;;;;;;;10.40;8.13;;;13.40;99.90;;;;;;5113956;27;20512;-74
2021/10/02 09:53:26;;;;;;;12.13;8.90;;;13.40;99.90;;;;;;5115813;27;20303;-73
2021/10/02 09:55:54;;;;;;;9.53;7.13;;;13.50;99.90;;;;;;5100835;27;20204;-71
2021/10/02 09:58:44;;;;;;;6.97;6.23;;;13.50;99.90;;;;;;5117046;27;20241;-76
2021/10/02 10:01:27;;;;;;;12.33;7.87;;;13.60;99.90;;;;;;5107976;28;20200;-78
2021/10/02 10:03:55;;;;;;;12.37;9.07;;;13.60;99.90;;;;;;5112534;27;20318;-75
2021/10/02 10:06:26;;;;;;;13.23;9.17;;;13.70;99.90;;;;;;5104559;27;20709;-75
2021/10/02 10:09:05;;;;;;;12.17;8.73;;;13.70;99.90;;;;;;5105174;28;20512;-76
2021/10/02 10:11:44;;;;;;;11.57;8.47;;;13.80;99.90;;;;;;5116116;27;20678;-75
2021/10/02 10:14:18;;;;;;;14.00;9.43;;;13.80;99.90;;;;;;5110086;27;20673;-75
2021/10/02 10:16:46;;;;;;;14.67;10.10;;;13.80;99.90;;;;;;5109265;28;20196;-74
2021/10/02 10:19:21;;;;;;;12.30;8.90;;;13.80;99.90;;;;;;5106072;28;20216;-74
2021/10/02 10:22:05;;;;;;;16.63;9.70;;;13.80;99.90;;;;;;5096236;28;20216;-75
2021/10/02 10:24:34;;;;;;;11.03;8.07;;;13.80;99.90;;;;;;5102360;28;20204;-76
2021/10/02 10:27:01;;;;;;;12.40;8.83;;;13.80;99.90;;;;;;5105898;27;20196;-75
2021/10/02 10:29:40;;;;;;;10.83;8.07;;;13.80;99.90;;;;;;5105873;28;20670;-74
2021/10/02 10:32:09;;;;;;;14.80;9.83;;;13.90;99.90;;;;;;5101256;28;20518;-80
2021/10/02 10:34:39;;;;;;;12.03;8.67;;;13.90;99.90;;;;;;5099847;28;20758;-75
2021/10/02 10:37:06;;;;;;;13.20;9.83;;;13.90;99.90;;;;;;5099993;28;20216;-76
2021/10/02 10:39:35;;;;;;;12.93;9.20;;;14.00;99.90;;;;;;5105214;28;20581;-77
2021/10/02 10:42:05;;;;;;;13.13;9.27;;;13.90;99.90;;;;;;5106430;28;20200;-75
2021/10/02 10:44:35;;;;;;;16.20;10.40;;;13.90;99.90;;;;;;5104419;28;20623;-79
2021/10/02 10:47:04;;;;;;;17.17;11.63;;;14.00;99.90;;;;;;5105526;28;20220;-77
2021/10/02 10:49:31;;;;;;;17.50;12.17;;;14.00;99.90;;;;;;5104072;28;20208;-76
2021/10/02 10:55:04;;;;;;;19.43;12.83;;;14.00;99.90;;;;;;5096562;28;20223;-76
2021/10/02 10:57:42;;;;;;;14.33;10.23;;;14.00;99.90;;;;;;5104887;27;20331;-77
2021/10/02 11:00:44;;;;;;;17.57;12.03;;;14.10;99.90;;;;;;5115518;27;20220;-78
2021/10/02 11:03:34;;;;;;;20.83;12.97;;;13.70;99.90;;;;;;5021343;28;20286;-78
2021/10/02 11:06:01;;;;;;;18.70;12.20;;;14.00;99.90;;;;;;5039125;28;20210;-76
2021/10/02 11:09:13;;;;;;;16.73;10.87;;;13.90;99.90;;;;;;5043514;28;20661;-75
2021/10/02 11:12:03;;;;;;;13.60;9.60;;;13.90;99.90;;;;;;5032121;28;20281;-77
2021/10/02 11:15:01;;;;;;;14.47;10.50;;;14.00;99.90;;;;;;5021486;28;20199;-79
2021/10/02 11:17:44;;;;;;;22.00;13.70;;;14.00;99.90;;;;;;5038899;28;20207;-77
2021/10/02 11:20:32;;;;;;;18.17;12.33;;;14.00;99.90;;;;;;5037946;28;20744;-77
2021/10/02 11:23:41;;;;;;;18.33;12.30;;;14.00;99.90;;;;;;5037929;28;20261;-77
2021/10/02 11:26:18;;;;;;;16.17;10.87;;;14.10;99.90;;;;;;4870419;29;20216;-77
2021/10/02 11:28:53;;;;;;;13.63;9.43;;;14.10;99.90;;;;;;4873412;29;20205;-77
2021/10/02 11:31:24;;;;;;;15.00;11.23;;;14.20;99.90;;;;;;4888459;29;20208;-76
2021/10/02 11:33:52;;;;;;;12.77;9.50;;;14.30;99.90;;;;;;4873914;29;20215;-75
2021/10/02 11:36:44;;;;;;;12.90;9.17;;;14.40;99.90;;;;;;4890087;29;20645;-76
2021/10/02 11:39:19;;;;;;;16.30;10.90;;;14.60;99.90;;;;;;4930526;28;20241;-78
2021/10/02 11:41:49;;;;;;;20.13;13.07;;;14.60;99.90;;;;;;4931422;29;20202;-76
2021/10/02 11:44:40;;;;;;;16.83;11.57;;;14.70;99.90;;;;;;4948278;28;21285;-77
2021/10/02 11:47:32;;;;;;;13.70;9.73;;;14.70;99.90;;;;;;4944752;28;20211;-76
2021/10/02 11:50:29;;;;;;;14.27;10.13;;;14.80;99.90;;;;;;4944474;28;20588;-75
2021/10/02 11:53:18;;;;;;;18.47;12.03;;;14.90;99.90;;;;;;4943707;28;20207;-76
2021/10/02 11:55:47;;;;;;;18.80;12.87;;;14.90;99.90;;;;;;4927593;28;20259;-76
2021/10/02 11:58:15;;;;;;;17.53;12.33;;;15.00;99.90;;;;;;4927382;28;20203;-76
2021/10/02 12:00:50;;;;;;;16.23;10.60;;;15.00;99.90;;;;;;4928599;28;20648;-77
2021/10/02 12:03:20;;;;;;;14.80;10.23;;;15.10;99.90;;;;;;5047360;27;20319;-76
2021/10/02 12:05:49;;;;;;;15.87;11.43;;;15.20;99.90;;;;;;5103382;27;20203;-76
2021/10/02 12:08:18;;;;;;;18.53;12.20;;;15.20;99.90;;;;;;5105831;27;20194;-74
2021/10/02 12:11:00;;;;;;;15.43;10.90;;;15.20;99.90;;;;;;5104770;28;20298;-75
2021/10/02 12:13:29;;;;;;;15.50;10.53;;;15.20;99.90;;;;;;5103421;27;20734;-75
2021/10/02 12:16:03;;;;;;;14.60;9.70;;;15.30;99.90;;;;;;5102530;27;20201;-76
2021/10/02 12:19:06;;;;;;;14.50;10.33;;;15.30;99.90;;;;;;5105587;27;20218;-76
2021/10/02 12:21:40;;;;;;;17.43;11.00;;;15.30;99.90;;;;;;5048248;28;20211;-77
2021/10/02 12:24:16;;;;;;;16.70;11.27;;;15.30;99.90;;;;;;5036034;28;20341;-78
2021/10/02 12:26:49;;;;;;;14.83;10.27;;;15.30;99.90;;;;;;5045724;28;20757;-75
2021/10/02 12:29:18;;;;;;;19.57;12.20;;;15.30;99.90;;;;;;5046211;28;20528;-76
2021/10/02 12:31:55;;;;;;;13.10;9.70;;;15.30;99.90;;;;;;5046017;28;20204;-76
2021/10/02 12:34:25;;;;;;;15.13;10.43;;;15.40;99.90;;;;;;5047792;28;20207;-75
2021/10/02 12:36:56;;;;;;;15.40;9.30;;;15.40;99.90;;;;;;5032085;28;20248;-74
2021/10/02 12:39:28;;;;;;;13.30;9.33;;;15.50;99.90;;;;;;5048571;28;20233;-75
2021/10/02 12:41:55;;;;;;;19.80;12.10;;;15.70;99.90;;;;;;5039496;28;20778;-76
2021/10/02 12:44:26;;;;;;;15.00;10.37;;;15.90;99.90;;;;;;5024994;28;20282;-76
2021/10/02 12:46:57;;;;;;;14.77;10.13;;;15.90;99.90;;;;;;5045160;28;20232;-75
2021/10/02 12:49:25;;;;;;;14.32;10.10;;;15.90;99.90;;;;;;5041711;28;20436;-78
2021/10/02 12:51:55;;;;;;;10.68;8.30;;;15.80;99.90;;;;;;5043042;28;20986;-77
2021/10/02 12:54:25;;;;;;;15.20;11.23;;;15.90;99.90;;;;;;5025627;28;20206;-79
2021/10/02 12:57:02;;;;;;;12.33;7.93;;;15.90;99.90;;;;;;5026329;28;20229;-77
2021/10/02 12:59:37;;;;;;;11.77;8.37;;;15.90;99.90;;;;;;5093660;27;20227;-77
2021/10/02 13:02:06;;;;;;;16.60;11.10;;;15.90;99.90;;;;;;5103701;27;20230;-77
2021/10/02 13:04:34;;;;;;;14.38;10.60;;;15.90;99.90;;;;;;5101714;27;20451;-76
2021/10/02 13:07:01;;;;;;;18.10;12.63;;;15.80;99.90;;;;;;5106428;27;20209;-75
2021/10/02 13:09:29;;;;;;;16.63;11.55;;;15.70;99.90;;;;;;5104400;28;20413;-76
2021/10/02 13:12:06;;;;;;;14.70;10.17;;;15.60;99.90;;;;;;5106785;27;20234;-79
2021/10/02 13:14:35;;;;;;;15.83;10.53;;;15.60;99.90;;;;;;5095309;28;20266;-77
2021/10/02 13:17:06;;;;;;;18.07;11.63;;;15.50;99.90;;;;;;5104871;28;20202;-78
2021/10/02 13:19:34;;;;;;;17.17;11.33;;;15.40;99.90;;;;;;5103601;28;20232;-79
2021/10/02 13:22:17;;;;;;;15.70;10.77;;;15.40;99.90;;;;;;5098882;28;20211;-77
2021/10/02 13:25:08;;;;;;;11.23;8.50;;;15.40;99.90;;;;;;5101676;28;20207;-78
2021/10/02 13:27:36;;;;;;;14.23;9.70;;;15.40;99.90;;;;;;5102780;28;20599;-77
2021/10/02 13:30:09;;;;;;;16.17;10.83;;;15.40;99.90;;;;;;5103506;27;20199;-77
2021/10/02 13:32:39;;;;;;;16.20;11.50;;;15.40;99.90;;;;;;5100057;28;20207;-75
2021/10/02 13:35:13;;;;;;;15.27;10.73;;;15.40;99.90;;;;;;5103379;28;20197;-78
2021/10/02 13:37:49;;;;;;;16.47;10.77;;;15.90;99.90;;;;;;5103766;27;20187;-78
2021/10/02 13:40:21;;;;;;;13.73;9.73;;;15.40;99.90;;;;;;5098847;27;20222;-79
2021/10/02 13:42:49;;;;;;;14.53;10.40;;;15.50;99.90;;;;;;5103894;27;20424;-78
2021/10/02 13:45:17;;;;;;;19.87;12.73;;;15.70;99.90;;;;;;5099534;27;20311;-78
2021/10/02 13:48:05;;;;;;;17.97;12.73;;;15.90;99.90;;;;;;5102904;28;20207;-78
2021/10/02 13:50:32;;;;;;;19.23;12.30;;;16.00;99.90;;;;;;5099495;28;20198;-79
2021/10/02 13:53:02;;;;;;;18.00;13.20;;;16.00;99.90;;;;;;5102874;27;20558;-79
2021/10/02 13:55:30;;;;;;;20.07;14.03;;;16.00;99.90;;;;;;5105680;27;20224;-77